sensor_id;sensor_type;location;lat;lon;timestamp;P1;durP1;ratioP1;P2;durP2;ratioP2
74168;SDS011;62523;53.336;83.690;2024-01-07T00:02:57;10.25;;;4.78;;
74168;SDS011;62523;53.336;83.690;2024-01-07T00:07:58;5.90;;;3.88;;
74168;SDS011;62523;53.336;83.690;2024-01-07T00:13:00;21.57;;;4.83;;
74168;SDS011;62523;53.336;83.690;2024-01-07T00:18:01;9.90;;;5.93;;
74168;SDS011;62523;53.336;83.690;2024-01-07T00:23:03;12.57;;;5.28;;
74168;SDS011;62523;53.336;83.690;2024-01-07T00:33:06;6.57;;;4.30;;
74168;SDS011;62523;53.336;83.690;2024-01-07T00:38:07;14.83;;;5.27;;
74168;SDS011;62523;53.336;83.690;2024-01-07T00:43:09;9.13;;;4.20;;
74168;SDS011;62523;53.336;83.690;2024-01-07T00:48:10;13.65;;;5.32;;
74168;SDS011;62523;53.336;83.690;2024-01-07T00:53:12;9.13;;;3.97;;
74168;SDS011;62523;53.336;83.690;2024-01-07T00:58:13;7.93;;;4.25;;
74168;SDS011;62523;53.336;83.690;2024-01-07T01:03:14;8.40;;;4.05;;
74168;SDS011;62523;53.336;83.690;2024-01-07T01:08:16;9.63;;;4.40;;
74168;SDS011;62523;53.336;83.690;2024-01-07T01:13:18;12.35;;;5.60;;
74168;SDS011;62523;53.336;83.690;2024-01-07T01:18:19;9.80;;;4.35;;
74168;SDS011;62523;53.336;83.690;2024-01-07T01:23:20;10.73;;;3.70;;
74168;SDS011;62523;53.336;83.690;2024-01-07T01:28:22;9.65;;;5.57;;
74168;SDS011;62523;53.336;83.690;2024-01-07T01:38:24;8.68;;;3.70;;
74168;SDS011;62523;53.336;83.690;2024-01-07T01:43:26;15.73;;;4.55;;
74168;SDS011;62523;53.336;83.690;2024-01-07T01:48:31;7.70;;;3.65;;
74168;SDS011;62523;53.336;83.690;2024-01-07T01:53:33;10.73;;;5.18;;
74168;SDS011;62523;53.336;83.690;2024-01-07T01:58:36;12.50;;;5.63;;
74168;SDS011;62523;53.336;83.690;2024-01-07T02:03:37;10.55;;;4.80;;
74168;SDS011;62523;53.336;83.690;2024-01-07T02:08:39;7.03;;;4.38;;
74168;SDS011;62523;53.336;83.690;2024-01-07T02:13:41;9.00;;;5.25;;
74168;SDS011;62523;53.336;83.690;2024-01-07T02:23:45;7.70;;;4.63;;
74168;SDS011;62523;53.336;83.690;2024-01-07T02:28:46;9.15;;;5.82;;
74168;SDS011;62523;53.336;83.690;2024-01-07T02:33:47;10.47;;;5.03;;
74168;SDS011;62523;53.336;83.690;2024-01-07T02:38:49;11.50;;;5.20;;
74168;SDS011;62523;53.336;83.690;2024-01-07T02:43:51;9.63;;;4.43;;
74168;SDS011;62523;53.336;83.690;2024-01-07T02:48:52;9.82;;;5.75;;
74168;SDS011;62523;53.336;83.690;2024-01-07T02:53:53;8.50;;;5.32;;
74168;SDS011;62523;53.336;83.690;2024-01-07T02:58:55;18.77;;;9.75;;
74168;SDS011;62523;53.336;83.690;2024-01-07T03:03:56;19.67;;;6.85;;
74168;SDS011;62523;53.336;83.690;2024-01-07T03:08:58;17.63;;;6.40;;
74168;SDS011;62523;53.336;83.690;2024-01-07T03:19:00;24.70;;;9.35;;
74168;SDS011;62523;53.336;83.690;2024-01-07T03:24:02;24.55;;;10.48;;
74168;SDS011;62523;53.336;83.690;2024-01-07T03:29:04;54.13;;;24.52;;
74168;SDS011;62523;53.336;83.690;2024-01-07T03:34:05;39.35;;;16.70;;
74168;SDS011;62523;53.336;83.690;2024-01-07T03:39:07;34.42;;;16.20;;
74168;SDS011;62523;53.336;83.690;2024-01-07T03:44:09;63.40;;;28.63;;
74168;SDS011;62523;53.336;83.690;2024-01-07T03:54:11;83.35;;;30.45;;
74168;SDS011;62523;53.336;83.690;2024-01-07T03:59:13;59.72;;;28.80;;
74168;SDS011;62523;53.336;83.690;2024-01-07T04:09:15;55.95;;;18.88;;
74168;SDS011;62523;53.336;83.690;2024-01-07T04:14:17;57.38;;;17.60;;
74168;SDS011;62523;53.336;83.690;2024-01-07T04:19:18;29.20;;;12.55;;
74168;SDS011;62523;53.336;83.690;2024-01-07T04:24:20;32.67;;;11.38;;
74168;SDS011;62523;53.336;83.690;2024-01-07T04:29:21;41.45;;;17.92;;
74168;SDS011;62523;53.336;83.690;2024-01-07T04:34:22;50.55;;;17.65;;
74168;SDS011;62523;53.336;83.690;2024-01-07T04:39:25;38.72;;;18.42;;
74168;SDS011;62523;53.336;83.690;2024-01-07T04:44:26;72.30;;;29.17;;
74168;SDS011;62523;53.336;83.690;2024-01-07T04:49:28;77.38;;;31.00;;
74168;SDS011;62523;53.336;83.690;2024-01-07T04:59:30;90.78;;;39.42;;
74168;SDS011;62523;53.336;83.690;2024-01-07T05:04:31;55.63;;;22.87;;
74168;SDS011;62523;53.336;83.690;2024-01-07T05:09:33;54.20;;;24.98;;
74168;SDS011;62523;53.336;83.690;2024-01-07T05:14:34;73.60;;;31.50;;
74168;SDS011;62523;53.336;83.690;2024-01-07T05:19:39;62.70;;;25.38;;
74168;SDS011;62523;53.336;83.690;2024-01-07T05:24:42;58.67;;;22.95;;
74168;SDS011;62523;53.336;83.690;2024-01-07T05:29:46;41.47;;;17.90;;
74168;SDS011;62523;53.336;83.690;2024-01-07T05:34:48;42.80;;;21.17;;
74168;SDS011;62523;53.336;83.690;2024-01-07T05:39:51;67.78;;;23.58;;
74168;SDS011;62523;53.336;83.690;2024-01-07T05:44:52;96.53;;;36.87;;
74168;SDS011;62523;53.336;83.690;2024-01-07T05:49:53;63.93;;;26.80;;
74168;SDS011;62523;53.336;83.690;2024-01-07T05:54:55;75.55;;;34.47;;
74168;SDS011;62523;53.336;83.690;2024-01-07T05:59:56;80.00;;;34.55;;
74168;SDS011;62523;53.336;83.690;2024-01-07T06:04:58;70.43;;;28.77;;
74168;SDS011;62523;53.336;83.690;2024-01-07T06:09:59;116.63;;;51.75;;
74168;SDS011;62523;53.336;83.690;2024-01-07T06:15:01;86.78;;;33.83;;
74168;SDS011;62523;53.336;83.690;2024-01-07T06:20:03;56.65;;;23.77;;
74168;SDS011;62523;53.336;83.690;2024-01-07T06:25:06;56.13;;;24.95;;
74168;SDS011;62523;53.336;83.690;2024-01-07T06:30:08;46.33;;;20.80;;
74168;SDS011;62523;53.336;83.690;2024-01-07T06:35:10;35.42;;;18.15;;
74168;SDS011;62523;53.336;83.690;2024-01-07T06:40:11;34.67;;;19.55;;
74168;SDS011;62523;53.336;83.690;2024-01-07T06:45:13;49.72;;;22.08;;
74168;SDS011;62523;53.336;83.690;2024-01-07T06:50:15;39.45;;;19.20;;
74168;SDS011;62523;53.336;83.690;2024-01-07T06:55:17;48.95;;;23.15;;
74168;SDS011;62523;53.336;83.690;2024-01-07T07:00:19;36.45;;;15.40;;
74168;SDS011;62523;53.336;83.690;2024-01-07T07:05:21;64.30;;;21.90;;
74168;SDS011;62523;53.336;83.690;2024-01-07T07:10:22;36.42;;;17.20;;
74168;SDS011;62523;53.336;83.690;2024-01-07T07:15:24;35.17;;;15.82;;
74168;SDS011;62523;53.336;83.690;2024-01-07T07:20:27;42.20;;;18.05;;
74168;SDS011;62523;53.336;83.690;2024-01-07T07:25:29;59.22;;;26.63;;
74168;SDS011;62523;53.336;83.690;2024-01-07T07:30:30;55.20;;;27.23;;
74168;SDS011;62523;53.336;83.690;2024-01-07T07:35:31;44.38;;;15.88;;
74168;SDS011;62523;53.336;83.690;2024-01-07T07:40:33;36.83;;;16.92;;
74168;SDS011;62523;53.336;83.690;2024-01-07T07:45:34;37.95;;;19.92;;
74168;SDS011;62523;53.336;83.690;2024-01-07T07:50:36;47.00;;;21.27;;
74168;SDS011;62523;53.336;83.690;2024-01-07T07:55:38;39.72;;;19.05;;
74168;SDS011;62523;53.336;83.690;2024-01-07T08:05:41;46.08;;;18.85;;
74168;SDS011;62523;53.336;83.690;2024-01-07T08:10:43;38.05;;;18.65;;
74168;SDS011;62523;53.336;83.690;2024-01-07T08:15:44;49.05;;;19.02;;
74168;SDS011;62523;53.336;83.690;2024-01-07T08:20:46;62.65;;;30.48;;
74168;SDS011;62523;53.336;83.690;2024-01-07T08:25:47;70.30;;;31.05;;
74168;SDS011;62523;53.336;83.690;2024-01-07T08:30:49;66.40;;;32.80;;
74168;SDS011;62523;53.336;83.690;2024-01-07T08:35:52;69.03;;;36.97;;
74168;SDS011;62523;53.336;83.690;2024-01-07T08:40:53;58.17;;;29.37;;
74168;SDS011;62523;53.336;83.690;2024-01-07T08:45:55;50.65;;;28.58;;
74168;SDS011;62523;53.336;83.690;2024-01-07T08:50:56;59.10;;;35.22;;
74168;SDS011;62523;53.336;83.690;2024-01-07T08:55:58;50.38;;;28.08;;
74168;SDS011;62523;53.336;83.690;2024-01-07T09:00:59;49.70;;;26.83;;
74168;SDS011;62523;53.336;83.690;2024-01-07T09:06:00;56.92;;;29.83;;
74168;SDS011;62523;53.336;83.690;2024-01-07T09:11:06;100.53;;;48.50;;
74168;SDS011;62523;53.336;83.690;2024-01-07T09:16:08;117.07;;;58.78;;
74168;SDS011;62523;53.336;83.690;2024-01-07T09:21:12;135.98;;;68.50;;
74168;SDS011;62523;53.336;83.690;2024-01-07T09:26:13;56.85;;;22.52;;
74168;SDS011;62523;53.336;83.690;2024-01-07T09:31:14;66.00;;;27.80;;
74168;SDS011;62523;53.336;83.690;2024-01-07T09:41:17;63.45;;;23.38;;
74168;SDS011;62523;53.336;83.690;2024-01-07T09:46:19;61.15;;;23.88;;
74168;SDS011;62523;53.336;83.690;2024-01-07T09:51:23;56.20;;;22.55;;
74168;SDS011;62523;53.336;83.690;2024-01-07T09:56:26;71.63;;;37.42;;
74168;SDS011;62523;53.336;83.690;2024-01-07T10:01:35;69.32;;;34.95;;
74168;SDS011;62523;53.336;83.690;2024-01-07T10:06:37;78.63;;;34.38;;
74168;SDS011;62523;53.336;83.690;2024-01-07T10:11:39;78.90;;;34.22;;
74168;SDS011;62523;53.336;83.690;2024-01-07T10:16:40;88.72;;;43.83;;
74168;SDS011;62523;53.336;83.690;2024-01-07T10:21:42;125.15;;;61.25;;
74168;SDS011;62523;53.336;83.690;2024-01-07T10:26:43;148.48;;;69.22;;
74168;SDS011;62523;53.336;83.690;2024-01-07T10:31:45;107.88;;;54.10;;
74168;SDS011;62523;53.336;83.690;2024-01-07T10:36:47;134.82;;;68.60;;
74168;SDS011;62523;53.336;83.690;2024-01-07T10:41:49;195.13;;;111.38;;
74168;SDS011;62523;53.336;83.690;2024-01-07T10:46:53;128.10;;;67.47;;
74168;SDS011;62523;53.336;83.690;2024-01-07T11:08:32;130.95;;;65.80;;
74168;SDS011;62523;53.336;83.690;2024-01-07T11:13:35;144.18;;;71.55;;
74168;SDS011;62523;53.336;83.690;2024-01-07T11:19:00;196.95;;;96.72;;
74168;SDS011;62523;53.336;83.690;2024-01-07T11:24:00;152.73;;;78.15;;
74168;SDS011;62523;53.336;83.690;2024-01-07T11:29:01;228.70;;;114.57;;
74168;SDS011;62523;53.336;83.690;2024-01-07T11:34:03;142.88;;;68.35;;
74168;SDS011;62523;53.336;83.690;2024-01-07T11:39:05;98.20;;;49.58;;
74168;SDS011;62523;53.336;83.690;2024-01-07T11:44:09;107.53;;;52.63;;
74168;SDS011;62523;53.336;83.690;2024-01-07T11:49:12;109.70;;;51.33;;
74168;SDS011;62523;53.336;83.690;2024-01-07T11:54:16;139.10;;;62.65;;
74168;SDS011;62523;53.336;83.690;2024-01-07T11:59:19;220.07;;;107.38;;
74168;SDS011;62523;53.336;83.690;2024-01-07T12:04:20;165.48;;;86.15;;
74168;SDS011;62523;53.336;83.690;2024-01-07T12:09:22;99.13;;;50.00;;
74168;SDS011;62523;53.336;83.690;2024-01-07T12:14:23;117.85;;;59.42;;
74168;SDS011;62523;53.336;83.690;2024-01-07T12:19:25;184.07;;;90.20;;
74168;SDS011;62523;53.336;83.690;2024-01-07T12:24:27;79.10;;;42.45;;
74168;SDS011;62523;53.336;83.690;2024-01-07T12:29:28;95.40;;;52.03;;
74168;SDS011;62523;53.336;83.690;2024-01-07T12:34:30;123.55;;;63.75;;
74168;SDS011;62523;53.336;83.690;2024-01-07T12:39:32;133.32;;;66.15;;
74168;SDS011;62523;53.336;83.690;2024-01-07T12:44:33;188.98;;;106.00;;
74168;SDS011;62523;53.336;83.690;2024-01-07T12:54:37;155.93;;;83.22;;
74168;SDS011;62523;53.336;83.690;2024-01-07T12:59:39;102.88;;;52.38;;
74168;SDS011;62523;53.336;83.690;2024-01-07T13:09:41;63.28;;;25.83;;
74168;SDS011;62523;53.336;83.690;2024-01-07T13:14:45;42.40;;;18.27;;
74168;SDS011;62523;53.336;83.690;2024-01-07T13:19:47;45.65;;;20.42;;
74168;SDS011;62523;53.336;83.690;2024-01-07T13:24:49;63.60;;;25.92;;
74168;SDS011;62523;53.336;83.690;2024-01-07T13:29:50;70.60;;;25.63;;
74168;SDS011;62523;53.336;83.690;2024-01-07T13:34:52;81.45;;;31.80;;
74168;SDS011;62523;53.336;83.690;2024-01-07T13:39:53;70.97;;;28.97;;
74168;SDS011;62523;53.336;83.690;2024-01-07T13:44:55;51.85;;;20.75;;
74168;SDS011;62523;53.336;83.690;2024-01-07T13:49:56;53.30;;;25.20;;
74168;SDS011;62523;53.336;83.690;2024-01-07T13:54:58;56.30;;;25.00;;
74168;SDS011;62523;53.336;83.690;2024-01-07T14:05:01;57.42;;;22.15;;
74168;SDS011;62523;53.336;83.690;2024-01-07T14:10:04;63.10;;;24.23;;
74168;SDS011;62523;53.336;83.690;2024-01-07T14:15:06;53.37;;;26.17;;
74168;SDS011;62523;53.336;83.690;2024-01-07T14:20:09;73.43;;;30.13;;
74168;SDS011;62523;53.336;83.690;2024-01-07T14:25:11;69.85;;;26.27;;
74168;SDS011;62523;53.336;83.690;2024-01-07T14:30:15;60.03;;;24.77;;
74168;SDS011;62523;53.336;83.690;2024-01-07T14:35:16;50.13;;;22.27;;
74168;SDS011;62523;53.336;83.690;2024-01-07T14:40:17;61.13;;;23.07;;
74168;SDS011;62523;53.336;83.690;2024-01-07T14:45:19;50.97;;;22.25;;
74168;SDS011;62523;53.336;83.690;2024-01-07T14:55:22;57.80;;;28.15;;
74168;SDS011;62523;53.336;83.690;2024-01-07T15:00:23;67.07;;;30.00;;
74168;SDS011;62523;53.336;83.690;2024-01-07T15:05:25;102.40;;;36.35;;
74168;SDS011;62523;53.336;83.690;2024-01-07T15:10:26;109.57;;;40.33;;
74168;SDS011;62523;53.336;83.690;2024-01-07T15:15:27;99.72;;;38.67;;
74168;SDS011;62523;53.336;83.690;2024-01-07T15:20:30;91.53;;;35.67;;
74168;SDS011;62523;53.336;83.690;2024-01-07T15:25:32;70.68;;;33.30;;
74168;SDS011;62523;53.336;83.690;2024-01-07T15:30:33;63.88;;;27.92;;
74168;SDS011;62523;53.336;83.690;2024-01-07T15:35:35;80.75;;;34.55;;
74168;SDS011;62523;53.336;83.690;2024-01-07T15:40:36;73.57;;;27.90;;
74168;SDS011;62523;53.336;83.690;2024-01-07T15:45:38;84.35;;;48.80;;
74168;SDS011;62523;53.336;83.690;2024-01-07T15:50:39;80.95;;;44.78;;
74168;SDS011;62523;53.336;83.690;2024-01-07T15:55:41;87.10;;;46.65;;
74168;SDS011;62523;53.336;83.690;2024-01-07T16:00:42;91.32;;;47.70;;
74168;SDS011;62523;53.336;83.690;2024-01-07T16:05:44;80.75;;;48.55;;
74168;SDS011;62523;53.336;83.690;2024-01-07T16:10:46;92.18;;;51.20;;
74168;SDS011;62523;53.336;83.690;2024-01-07T16:15:47;73.05;;;48.85;;
74168;SDS011;62523;53.336;83.690;2024-01-07T16:20:49;69.90;;;40.90;;
74168;SDS011;62523;53.336;83.690;2024-01-07T16:25:50;64.73;;;37.00;;
74168;SDS011;62523;53.336;83.690;2024-01-07T16:30:52;66.07;;;39.22;;
74168;SDS011;62523;53.336;83.690;2024-01-07T16:35:55;44.53;;;19.92;;
74168;SDS011;62523;53.336;83.690;2024-01-07T16:40:56;34.13;;;16.65;;
74168;SDS011;62523;53.336;83.690;2024-01-07T16:45:58;45.75;;;18.60;;
74168;SDS011;62523;53.336;83.690;2024-01-07T16:56:00;33.70;;;13.75;;
74168;SDS011;62523;53.336;83.690;2024-01-07T17:01:02;21.48;;;8.75;;
74168;SDS011;62523;53.336;83.690;2024-01-07T17:11:04;13.43;;;7.95;;
74168;SDS011;62523;53.336;83.690;2024-01-07T17:16:06;15.95;;;8.90;;
74168;SDS011;62523;53.336;83.690;2024-01-07T17:21:08;15.85;;;9.30;;
74168;SDS011;62523;53.336;83.690;2024-01-07T17:26:09;14.53;;;6.53;;
74168;SDS011;62523;53.336;83.690;2024-01-07T17:31:11;17.35;;;7.25;;
74168;SDS011;62523;53.336;83.690;2024-01-07T17:36:12;14.95;;;9.15;;
74168;SDS011;62523;53.336;83.690;2024-01-07T17:41:15;13.95;;;9.27;;
74168;SDS011;62523;53.336;83.690;2024-01-07T17:46:17;17.52;;;9.90;;
74168;SDS011;62523;53.336;83.690;2024-01-07T17:51:18;15.40;;;8.05;;
74168;SDS011;62523;53.336;83.690;2024-01-07T17:56:20;18.75;;;9.48;;
74168;SDS011;62523;53.336;83.690;2024-01-07T18:01:22;19.05;;;8.15;;
74168;SDS011;62523;53.336;83.690;2024-01-07T18:11:26;15.00;;;8.40;;
74168;SDS011;62523;53.336;83.690;2024-01-07T18:16:27;15.57;;;8.43;;
74168;SDS011;62523;53.336;83.690;2024-01-07T18:21:28;20.98;;;10.18;;
74168;SDS011;62523;53.336;83.690;2024-01-07T18:26:31;14.88;;;8.27;;
74168;SDS011;62523;53.336;83.690;2024-01-07T18:31:33;19.58;;;12.15;;
74168;SDS011;62523;53.336;83.690;2024-01-07T18:36:34;22.42;;;12.88;;
74168;SDS011;62523;53.336;83.690;2024-01-07T18:41:36;25.98;;;10.75;;
74168;SDS011;62523;53.336;83.690;2024-01-07T18:46:37;12.63;;;6.47;;
74168;SDS011;62523;53.336;83.690;2024-01-07T18:51:40;19.10;;;5.88;;
74168;SDS011;62523;53.336;83.690;2024-01-07T18:56:42;34.85;;;15.55;;
74168;SDS011;62523;53.336;83.690;2024-01-07T19:01:43;26.98;;;9.68;;
74168;SDS011;62523;53.336;83.690;2024-01-07T19:06:44;11.77;;;5.25;;
74168;SDS011;62523;53.336;83.690;2024-01-07T19:11:48;8.82;;;5.22;;
74168;SDS011;62523;53.336;83.690;2024-01-07T19:16:50;19.67;;;5.90;;
74168;SDS011;62523;53.336;83.690;2024-01-07T19:26:54;11.57;;;6.05;;
74168;SDS011;62523;53.336;83.690;2024-01-07T19:31:56;15.45;;;7.22;;
74168;SDS011;62523;53.336;83.690;2024-01-07T19:36:58;11.18;;;4.78;;
74168;SDS011;62523;53.336;83.690;2024-01-07T19:41:59;17.13;;;6.82;;
74168;SDS011;62523;53.336;83.690;2024-01-07T19:52:03;16.27;;;5.77;;
74168;SDS011;62523;53.336;83.690;2024-01-07T19:57:05;19.10;;;8.07;;
74168;SDS011;62523;53.336;83.690;2024-01-07T20:07:08;13.40;;;5.40;;
74168;SDS011;62523;53.336;83.690;2024-01-07T20:12:09;15.32;;;5.57;;
74168;SDS011;62523;53.336;83.690;2024-01-07T20:17:11;16.50;;;6.22;;
74168;SDS011;62523;53.336;83.690;2024-01-07T20:22:12;15.50;;;7.18;;
74168;SDS011;62523;53.336;83.690;2024-01-07T20:27:14;10.95;;;6.05;;
74168;SDS011;62523;53.336;83.690;2024-01-07T20:32:16;15.18;;;6.75;;
74168;SDS011;62523;53.336;83.690;2024-01-07T20:37:27;12.10;;;4.63;;
74168;SDS011;62523;53.336;83.690;2024-01-07T20:42:28;9.70;;;5.15;;
74168;SDS011;62523;53.336;83.690;2024-01-07T20:47:30;8.50;;;4.30;;
74168;SDS011;62523;53.336;83.690;2024-01-07T20:52:33;12.70;;;6.10;;
74168;SDS011;62523;53.336;83.690;2024-01-07T20:57:34;19.77;;;4.67;;
74168;SDS011;62523;53.336;83.690;2024-01-07T21:02:36;8.80;;;4.63;;
74168;SDS011;62523;53.336;83.690;2024-01-07T21:07:38;18.65;;;6.57;;
74168;SDS011;62523;53.336;83.690;2024-01-07T21:12:39;11.45;;;4.60;;
74168;SDS011;62523;53.336;83.690;2024-01-07T21:17:41;12.10;;;5.97;;
74168;SDS011;62523;53.336;83.690;2024-01-07T21:22:43;13.53;;;7.10;;
74168;SDS011;62523;53.336;83.690;2024-01-07T21:27:44;13.13;;;7.07;;
74168;SDS011;62523;53.336;83.690;2024-01-07T21:32:45;15.13;;;7.50;;
74168;SDS011;62523;53.336;83.690;2024-01-07T21:37:47;28.23;;;18.67;;
74168;SDS011;62523;53.336;83.690;2024-01-07T21:42:48;30.17;;;18.23;;
74168;SDS011;62523;53.336;83.690;2024-01-07T21:47:51;32.25;;;16.52;;
74168;SDS011;62523;53.336;83.690;2024-01-07T21:52:55;25.33;;;16.67;;
74168;SDS011;62523;53.336;83.690;2024-01-07T21:57:56;27.10;;;17.20;;
74168;SDS011;62523;53.336;83.690;2024-01-07T22:02:58;30.77;;;18.77;;
74168;SDS011;62523;53.336;83.690;2024-01-07T22:08:01;32.28;;;17.63;;
74168;SDS011;62523;53.336;83.690;2024-01-07T22:13:04;24.10;;;17.13;;
74168;SDS011;62523;53.336;83.690;2024-01-07T22:23:07;28.33;;;19.08;;
74168;SDS011;62523;53.336;83.690;2024-01-07T22:28:09;33.70;;;22.70;;
74168;SDS011;62523;53.336;83.690;2024-01-07T22:33:10;31.10;;;22.43;;
74168;SDS011;62523;53.336;83.690;2024-01-07T22:38:11;27.15;;;17.88;;
74168;SDS011;62523;53.336;83.690;2024-01-07T22:43:13;36.05;;;16.38;;
74168;SDS011;62523;53.336;83.690;2024-01-07T22:48:18;25.92;;;16.20;;
74168;SDS011;62523;53.336;83.690;2024-01-07T22:53:19;21.58;;;14.25;;
74168;SDS011;62523;53.336;83.690;2024-01-07T22:58:21;20.42;;;13.65;;
74168;SDS011;62523;53.336;83.690;2024-01-07T23:03:22;23.90;;;15.07;;
74168;SDS011;62523;53.336;83.690;2024-01-07T23:13:25;24.38;;;13.23;;
74168;SDS011;62523;53.336;83.690;2024-01-07T23:18:26;20.25;;;12.23;;
74168;SDS011;62523;53.336;83.690;2024-01-07T23:23:27;15.00;;;11.57;;
74168;SDS011;62523;53.336;83.690;2024-01-07T23:28:29;19.30;;;12.65;;
74168;SDS011;62523;53.336;83.690;2024-01-07T23:33:30;17.33;;;11.82;;
74168;SDS011;62523;53.336;83.690;2024-01-07T23:38:35;19.00;;;11.77;;
74168;SDS011;62523;53.336;83.690;2024-01-07T23:43:36;16.48;;;11.68;;
74168;SDS011;62523;53.336;83.690;2024-01-07T23:53:39;20.05;;;10.93;;
74168;SDS011;62523;53.336;83.690;2024-01-07T23:58:40;17.33;;;10.13;;
